Anna, Texas
Current Conditions -  °F | °C
As of 3:53 AM on Saturday 25 Oct 2014 (Local Time) from KTKI Reporting Station
Clear Clear  
Wind Chill: 62°   Ceiling: Unl
Heat Index: 62°   Visibility: 10mi
Dew Point: 58°   Wind: 3mph
Humidity: 86%   Direction: 150°SSE
Pressure: 30.1"   Gusts: NA
Location:  33.35°N, 96.55°W
Report Text: KTKI 250853Z AUTO 15003KT 10SM CLR 17/14 A3010 RMK AO2 SLP193 T01670144 53002
Loading
Personal Weather Stations






























Interactive Weather Map
Tropical Storm Tracking
New forecast layout! Learn more

10-Day Weather Forecast

Advertisements
Track Severe Weather on mobile